createdAt,value
2023-04-27T00:00:13.464Z,102175.00
2023-04-27T00:03:06.715Z,102173.00
2023-04-27T00:05:44.326Z,102164.00
2023-04-27T00:08:17.234Z,102166.00
2023-04-27T00:10:50.210Z,102173.00
2023-04-27T00:13:23.097Z,102163.00
2023-04-27T00:15:56.380Z,102162.00
2023-04-27T00:18:29.491Z,102156.00
2023-04-27T00:21:06.662Z,102154.00
2023-04-27T00:23:39.632Z,102154.00
2023-04-27T00:26:16.656Z,102147.00
2023-04-27T00:28:52.199Z,102141.00
2023-04-27T00:31:25.263Z,102137.00
2023-04-27T00:33:57.994Z,102141.00
2023-04-27T00:36:30.876Z,102139.00
2023-04-27T00:39:03.858Z,102126.00
2023-04-27T00:41:36.811Z,102111.00
2023-04-27T00:44:09.819Z,102117.00
2023-04-27T00:46:42.698Z,102114.00
2023-04-27T00:49:15.725Z,102104.00
2023-04-27T00:51:48.836Z,102103.00
2023-04-27T00:54:26.469Z,102100.00
2023-04-27T00:56:59.887Z,102103.00
2023-04-27T00:59:33.788Z,102090.00
2023-04-27T01:02:06.708Z,102088.00
2023-04-27T01:04:40.309Z,102105.00
2023-04-27T01:07:13.769Z,102094.00
2023-04-27T01:09:46.859Z,102086.00
2023-04-27T01:12:19.673Z,102079.00
2023-04-27T01:14:52.816Z,102088.00
2023-04-27T01:17:29.900Z,102085.00
2023-04-27T01:20:04.091Z,102076.00
2023-04-27T01:22:37.045Z,102071.00
2023-04-27T01:25:10.817Z,102074.00
2023-04-27T01:27:43.688Z,102079.00
2023-04-27T01:30:17.445Z,102070.00
2023-04-27T01:32:50.628Z,102075.00
2023-04-27T01:35:23.597Z,102068.00
2023-04-27T01:37:56.598Z,102061.00
2023-04-27T01:40:29.454Z,102059.00
2023-04-27T01:43:02.882Z,102063.00
2023-04-27T01:45:36.064Z,102063.00
2023-04-27T01:48:09.585Z,102069.00
2023-04-27T01:50:42.252Z,102070.00
2023-04-27T01:53:15.427Z,102069.00
2023-04-27T01:55:48.441Z,102061.00
2023-04-27T01:58:21.314Z,102052.00
2023-04-27T02:00:53.952Z,102051.00
2023-04-27T02:03:26.908Z,102054.00
2023-04-27T02:06:00.013Z,102054.00
2023-04-27T02:08:33.370Z,102051.00
2023-04-27T02:11:06.344Z,102045.00
2023-04-27T02:13:39.259Z,102046.00
2023-04-27T02:16:12.102Z,102049.00
2023-04-27T02:18:45.115Z,102050.00
2023-04-27T02:21:18.047Z,102055.00
2023-04-27T02:23:51.018Z,102051.00
2023-04-27T02:26:24.486Z,102045.00
2023-04-27T02:28:57.153Z,102040.00
2023-04-27T02:31:30.613Z,102033.00
2023-04-27T02:34:03.312Z,102042.00
2023-04-27T02:36:36.232Z,102044.00
2023-04-27T02:39:09.299Z,102033.00
2023-04-27T02:41:42.160Z,102039.00
2023-04-27T02:44:15.178Z,102035.00
2023-04-27T02:46:48.184Z,102036.00
2023-04-27T02:49:21.071Z,102045.00
2023-04-27T02:51:53.767Z,102040.00
2023-04-27T02:54:27.331Z,102036.00
2023-04-27T02:57:00.185Z,102039.00
2023-04-27T02:59:33.079Z,102031.00
2023-04-27T03:02:05.959Z,102028.00
2023-04-27T03:04:39.023Z,102026.00
2023-04-27T03:07:13.130Z,102015.00
2023-04-27T03:09:50.030Z,102019.00
2023-04-27T03:12:22.862Z,102021.00
2023-04-27T03:14:55.834Z,102011.00
2023-04-27T03:17:28.920Z,102025.00
2023-04-27T03:20:01.881Z,102024.00
2023-04-27T03:22:39.522Z,102027.00
2023-04-27T03:25:12.760Z,102030.00
2023-04-27T03:27:45.507Z,102021.00
2023-04-27T03:30:18.795Z,102033.00
2023-04-27T03:32:51.843Z,102032.00
2023-04-27T03:35:24.580Z,102036.00
2023-04-27T03:37:57.574Z,102038.00
2023-04-27T03:40:30.336Z,102042.00
2023-04-27T03:43:03.471Z,102035.00
2023-04-27T03:45:36.373Z,102035.00
2023-04-27T03:48:09.942Z,102027.00
2023-04-27T03:50:42.649Z,102033.00
2023-04-27T03:53:15.870Z,102025.00
2023-04-27T03:55:54.009Z,102019.00
2023-04-27T03:58:27.053Z,102021.00
2023-04-27T04:01:00.549Z,102018.00
2023-04-27T04:03:33.824Z,102015.00
2023-04-27T04:06:06.658Z,102024.00
2023-04-27T04:08:39.799Z,102025.00
2023-04-27T04:11:13.783Z,102025.00
2023-04-27T04:13:46.718Z,102028.00
2023-04-27T04:16:19.478Z,102028.00
2023-04-27T04:18:52.817Z,102032.00
2023-04-27T04:21:25.651Z,102031.00
2023-04-27T04:23:58.407Z,102032.00
2023-04-27T04:26:31.203Z,102030.00
2023-04-27T04:29:03.965Z,102033.00
2023-04-27T04:31:36.995Z,102034.00
2023-04-27T04:34:10.467Z,102034.00
2023-04-27T04:36:43.171Z,102031.00
2023-04-27T04:39:16.911Z,102029.00
2023-04-27T04:41:51.166Z,102034.00
2023-04-27T04:44:23.903Z,102038.00
2023-04-27T04:46:57.182Z,102039.00
2023-04-27T04:49:29.883Z,102037.00
2023-04-27T04:52:02.707Z,102043.00
2023-04-27T04:54:35.453Z,102051.00
2023-04-27T04:57:09.469Z,102053.00
2023-04-27T04:59:42.018Z,102046.00
2023-04-27T05:02:14.935Z,102051.00
2023-04-27T05:04:48.117Z,102049.00
2023-04-27T05:07:24.696Z,102057.00
2023-04-27T05:09:55.654Z,102064.00
2023-04-27T05:12:28.790Z,102067.00
2023-04-27T05:15:01.863Z,102072.00
2023-04-27T05:17:34.761Z,102072.00
2023-04-27T05:20:08.181Z,102072.00
2023-04-27T05:22:40.922Z,102076.00
2023-04-27T05:25:14.402Z,102079.00
2023-04-27T05:27:47.182Z,102083.00
2023-04-27T05:30:20.180Z,102072.00
2023-04-27T05:32:53.059Z,102081.00
2023-04-27T05:35:26.029Z,102093.00
2023-04-27T05:37:59.080Z,102086.00
2023-04-27T05:40:31.911Z,102078.00
2023-04-27T05:43:06.019Z,102079.00
2023-04-27T05:45:40.358Z,102083.00
2023-04-27T05:48:13.089Z,102081.00
2023-04-27T05:50:46.011Z,102089.00
2023-04-27T05:53:19.227Z,102086.00
2023-04-27T05:55:52.243Z,102088.00
2023-04-27T05:58:25.175Z,102098.00
2023-04-27T06:00:58.535Z,102101.00
2023-04-27T06:03:32.688Z,102090.00
2023-04-27T06:06:06.100Z,102096.00
2023-04-27T06:08:40.654Z,102105.00
2023-04-27T06:11:13.845Z,102104.00
2023-04-27T06:13:46.804Z,102110.00
2023-04-27T06:16:19.728Z,102110.00
2023-04-27T06:18:53.712Z,102116.00
2023-04-27T06:21:26.763Z,102115.00
2023-04-27T06:23:59.597Z,102122.00
2023-04-27T06:26:32.687Z,102133.00
2023-04-27T06:29:09.829Z,102138.00
2023-04-27T06:31:43.141Z,102141.00
2023-04-27T06:34:16.124Z,102144.00
2023-04-27T06:36:53.193Z,102150.00
2023-04-27T06:39:26.144Z,102155.00
2023-04-27T06:41:58.825Z,102147.00
2023-04-27T06:44:31.683Z,102156.00
2023-04-27T06:47:04.577Z,102164.00
2023-04-27T06:49:37.318Z,102155.00
2023-04-27T06:52:10.447Z,102161.00
2023-04-27T06:54:43.814Z,102168.00
2023-04-27T06:57:16.817Z,102167.00
2023-04-27T06:59:49.696Z,102171.00
2023-04-27T07:02:25.836Z,102172.00
2023-04-27T07:04:59.014Z,102178.00
2023-04-27T07:07:31.833Z,102181.00
2023-04-27T07:10:04.802Z,102176.00
2023-04-27T07:12:38.193Z,102178.00
2023-04-27T07:15:12.124Z,102176.00
2023-04-27T07:17:45.032Z,102185.00
2023-04-27T07:20:19.220Z,102188.00
2023-04-27T07:22:52.197Z,102191.00
2023-04-27T07:25:25.327Z,102191.00
2023-04-27T07:27:58.881Z,102201.00
2023-04-27T07:33:32.461Z,102193.00
2023-04-27T07:39:09.968Z,102200.00
2023-04-27T07:41:43.021Z,102200.00
2023-04-27T07:44:15.981Z,102210.00
2023-04-27T07:46:52.101Z,102194.00
2023-04-27T07:49:24.944Z,102200.00
2023-04-27T07:52:01.996Z,102196.00
2023-04-27T07:57:44.852Z,102204.00
2023-04-27T08:00:18.189Z,102203.00
2023-04-27T08:02:51.169Z,102200.00
2023-04-27T08:05:24.709Z,102207.00
2023-04-27T08:07:58.372Z,102206.00
2023-04-27T08:10:34.783Z,102211.00
2023-04-27T08:13:10.057Z,102193.00
2023-04-27T08:15:42.962Z,102190.00
2023-04-27T08:18:15.901Z,102191.00
2023-04-27T08:20:48.927Z,102194.00
2023-04-27T08:23:21.731Z,102194.00
2023-04-27T08:25:54.925Z,102208.00
2023-04-27T08:28:28.028Z,102226.00
2023-04-27T08:31:01.399Z,102212.00
2023-04-27T08:33:34.242Z,102217.00
2023-04-27T08:36:07.189Z,102205.00
2023-04-27T08:38:40.078Z,102217.00
2023-04-27T08:41:21.481Z,102230.00
2023-04-27T08:43:47.263Z,102230.00
2023-04-27T08:46:24.505Z,102228.00
2023-04-27T08:48:58.801Z,102211.00
2023-04-27T08:51:33.841Z,102220.00
2023-04-27T08:54:06.696Z,102221.00
2023-04-27T08:56:39.617Z,102223.00
2023-04-27T08:59:15.400Z,102225.00
2023-04-27T09:01:53.069Z,102252.00
2023-04-27T09:04:26.193Z,102241.00
2023-04-27T09:06:59.050Z,102247.00
2023-04-27T09:09:32.137Z,102245.00
2023-04-27T09:12:05.677Z,102242.00
2023-04-27T09:14:38.674Z,102247.00
2023-04-27T09:17:11.815Z,102254.00
2023-04-27T09:19:44.643Z,102259.00
2023-04-27T09:22:17.559Z,102254.00
2023-04-27T09:24:59.649Z,102260.00
2023-04-27T09:27:32.323Z,102265.00
2023-04-27T09:30:06.423Z,102260.00
2023-04-27T09:32:39.207Z,102266.00
2023-04-27T09:35:14.233Z,102278.00
2023-04-27T09:37:47.368Z,102271.00
2023-04-27T09:40:21.455Z,102268.00
2023-04-27T09:42:54.700Z,102267.00
2023-04-27T09:45:28.543Z,102276.00
2023-04-27T09:48:01.742Z,102277.00
2023-04-27T09:50:35.642Z,102276.00
2023-04-27T09:53:10.096Z,102279.00
2023-04-27T09:55:44.635Z,102284.00
2023-04-27T09:58:50.207Z,102284.00
2023-04-27T10:01:44.344Z,102291.00
2023-04-27T10:04:36.422Z,102291.00
2023-04-27T10:07:14.720Z,102281.00
2023-04-27T10:09:56.596Z,102281.00
2023-04-27T10:12:39.091Z,102288.00
2023-04-27T10:15:21.678Z,102280.00
2023-04-27T10:17:57.186Z,102275.00
2023-04-27T10:20:38.231Z,102260.00
2023-04-27T10:23:11.235Z,102265.00
2023-04-27T10:25:48.516Z,102263.00
2023-04-27T10:28:23.046Z,102260.00
2023-04-27T10:30:56.019Z,102265.00
2023-04-27T10:33:28.992Z,102262.00
2023-04-27T10:36:07.121Z,102261.00
2023-04-27T10:38:42.072Z,102263.00
2023-04-27T10:41:18.482Z,102271.00
2023-04-27T10:43:51.387Z,102274.00
2023-04-27T10:46:24.362Z,102279.00
2023-04-27T10:49:00.520Z,102273.00
2023-04-27T10:51:34.650Z,102267.00
2023-04-27T10:54:08.490Z,102258.00
2023-04-27T10:56:41.373Z,102271.00
2023-04-27T10:59:14.590Z,102261.00
2023-04-27T11:01:49.147Z,102264.00
2023-04-27T11:04:21.981Z,102251.00
2023-04-27T11:06:58.378Z,102254.00
2023-04-27T11:09:32.236Z,102256.00
2023-04-27T11:12:05.493Z,102247.00
2023-04-27T11:14:46.771Z,102260.00
2023-04-27T11:17:20.266Z,102255.00
2023-04-27T11:19:53.160Z,102266.00
2023-04-27T11:22:26.111Z,102265.00
2023-04-27T11:24:59.129Z,102250.00
2023-04-27T11:27:34.174Z,102261.00
2023-04-27T11:30:07.507Z,102262.00
2023-04-27T11:32:43.282Z,102257.00
2023-04-27T11:35:16.357Z,102267.00
2023-04-27T11:37:50.466Z,102257.00
2023-04-27T11:40:24.575Z,102251.00
2023-04-27T11:43:04.958Z,102259.00
2023-04-27T11:45:37.846Z,102250.00
2023-04-27T11:48:11.103Z,102247.00
2023-04-27T11:50:44.119Z,102253.00
2023-04-27T11:53:18.560Z,102258.00
2023-04-27T11:55:52.820Z,102255.00
2023-04-27T11:58:25.897Z,102258.00
2023-04-27T12:00:59.858Z,102254.00
2023-04-27T12:03:33.666Z,102256.00
2023-04-27T12:06:27.464Z,102243.00
2023-04-27T12:08:40.752Z,102249.00
2023-04-27T12:11:13.648Z,102245.00
2023-04-27T12:13:46.350Z,102245.00
2023-04-27T12:16:19.703Z,102245.00
2023-04-27T12:18:57.156Z,102240.00
2023-04-27T12:21:30.093Z,102234.00
2023-04-27T12:24:03.304Z,102248.00
2023-04-27T12:26:36.551Z,102254.00
2023-04-27T12:29:09.461Z,102246.00
2023-04-27T12:31:42.366Z,102248.00
2023-04-27T12:34:16.206Z,102266.00
2023-04-27T12:36:50.075Z,102257.00
2023-04-27T12:39:24.613Z,102257.00
2023-04-27T12:41:57.912Z,102244.00
2023-04-27T12:44:30.792Z,102255.00
2023-04-27T12:47:03.945Z,102241.00
2023-04-27T12:49:36.616Z,102248.00
2023-04-27T12:52:09.707Z,102242.00
2023-04-27T12:54:42.562Z,102230.00
2023-04-27T12:57:15.511Z,102229.00
2023-04-27T12:59:48.767Z,102220.00
2023-04-27T13:02:21.847Z,102228.00
2023-04-27T13:04:54.925Z,102223.00
2023-04-27T13:07:27.869Z,102216.00
2023-04-27T13:10:00.862Z,102213.00
2023-04-27T13:12:34.546Z,102214.00
2023-04-27T13:15:07.499Z,102220.00
2023-04-27T13:17:41.688Z,102214.00
2023-04-27T13:20:15.713Z,102223.00
2023-04-27T13:22:49.079Z,102215.00
2023-04-27T13:25:22.722Z,102218.00
2023-04-27T13:27:56.084Z,102223.00
2023-04-27T13:30:29.019Z,102215.00
2023-04-27T13:33:14.231Z,102213.00
2023-04-27T13:35:36.422Z,102223.00
2023-04-27T13:38:09.342Z,102219.00
2023-04-27T13:40:42.095Z,102212.00
2023-04-27T13:43:15.026Z,102203.00
2023-04-27T13:45:48.129Z,102198.00
2023-04-27T13:48:21.199Z,102201.00
2023-04-27T13:50:54.206Z,102200.00
2023-04-27T13:53:30.490Z,102202.00
2023-04-27T13:56:03.320Z,102203.00
2023-04-27T13:58:40.431Z,102200.00
2023-04-27T14:01:13.348Z,102191.00
2023-04-27T14:03:46.336Z,102199.00
2023-04-27T14:06:19.882Z,102197.00
2023-04-27T14:08:55.044Z,102205.00
2023-04-27T14:11:28.071Z,102205.00
2023-04-27T14:14:00.752Z,102201.00
2023-04-27T14:16:33.874Z,102202.00
2023-04-27T14:19:07.829Z,102199.00
2023-04-27T14:21:40.670Z,102192.00
2023-04-27T14:24:13.381Z,102189.00
2023-04-27T14:26:46.358Z,102195.00
2023-04-27T14:29:19.572Z,102193.00
2023-04-27T14:31:52.857Z,102188.00
2023-04-27T14:34:25.701Z,102192.00
2023-04-27T14:36:58.662Z,102200.00
2023-04-27T14:39:31.533Z,102193.00
2023-04-27T14:42:04.301Z,102191.00
2023-04-27T14:44:38.092Z,102189.00
2023-04-27T14:47:11.045Z,102188.00
2023-04-27T14:49:43.530Z,102175.00
2023-04-27T14:52:16.377Z,102181.00
2023-04-27T14:54:49.068Z,102186.00
2023-04-27T14:57:21.834Z,102183.00
2023-04-27T14:59:54.694Z,102180.00
2023-04-27T15:02:27.604Z,102179.00
2023-04-27T15:05:01.671Z,102179.00
2023-04-27T15:07:34.767Z,102174.00
2023-04-27T15:10:08.171Z,102178.00
2023-04-27T15:12:40.942Z,102172.00
2023-04-27T15:15:14.823Z,102169.00
2023-04-27T15:17:48.050Z,102172.00
2023-04-27T15:20:24.769Z,102175.00
2023-04-27T15:22:57.501Z,102159.00
2023-04-27T15:25:30.361Z,102160.00
2023-04-27T15:28:04.434Z,102173.00
2023-04-27T15:30:38.060Z,102169.00
2023-04-27T15:33:11.114Z,102170.00
2023-04-27T15:35:43.847Z,102166.00
2023-04-27T15:38:18.015Z,102166.00
2023-04-27T15:40:51.057Z,102164.00
2023-04-27T15:43:23.859Z,102156.00
2023-04-27T15:46:01.025Z,102150.00
2023-04-27T15:48:33.844Z,102159.00
2023-04-27T15:51:10.158Z,102161.00
2023-04-27T15:53:41.834Z,102158.00
2023-04-27T15:56:14.650Z,102146.00
2023-04-27T15:58:47.320Z,102140.00
2023-04-27T16:01:20.236Z,102144.00
2023-04-27T16:03:57.497Z,102146.00
2023-04-27T16:06:38.552Z,102149.00
2023-04-27T16:09:11.756Z,102146.00
2023-04-27T16:11:47.477Z,102147.00
2023-04-27T16:14:20.553Z,102143.00
2023-04-27T16:16:53.752Z,102145.00
2023-04-27T16:19:26.483Z,102143.00
2023-04-27T16:21:59.218Z,102136.00
2023-04-27T16:24:33.272Z,102147.00
2023-04-27T16:27:06.122Z,102140.00
2023-04-27T16:29:38.839Z,102143.00
2023-04-27T16:32:12.449Z,102149.00
2023-04-27T16:34:45.792Z,102149.00
2023-04-27T16:37:18.522Z,102154.00
2023-04-27T16:39:51.471Z,102153.00
2023-04-27T16:42:24.206Z,102158.00
2023-04-27T16:44:56.936Z,102161.00
2023-04-27T16:47:29.728Z,102157.00
2023-04-27T16:50:02.538Z,102162.00
2023-04-27T16:52:35.356Z,102158.00
2023-04-27T16:55:08.485Z,102156.00
2023-04-27T16:57:41.399Z,102155.00
2023-04-27T17:00:15.250Z,102160.00
2023-04-27T17:02:48.139Z,102157.00
2023-04-27T17:05:21.267Z,102155.00
2023-04-27T17:07:57.190Z,102150.00
2023-04-27T17:10:30.128Z,102147.00
2023-04-27T17:13:02.792Z,102151.00
2023-04-27T17:15:37.122Z,102165.00
2023-04-27T17:18:11.587Z,102162.00
2023-04-27T17:20:45.317Z,102163.00
2023-04-27T17:23:18.843Z,102167.00
2023-04-27T17:25:51.679Z,102160.00
2023-04-27T17:28:24.257Z,102164.00
2023-04-27T17:30:57.215Z,102163.00
2023-04-27T17:33:30.100Z,102176.00
2023-04-27T17:36:05.732Z,102173.00
2023-04-27T17:38:38.998Z,102176.00
2023-04-27T17:41:12.038Z,102181.00
2023-04-27T17:43:44.896Z,102181.00
2023-04-27T17:46:17.704Z,102187.00
2023-04-27T17:48:50.385Z,102187.00
2023-04-27T17:51:23.258Z,102187.00
2023-04-27T17:53:56.410Z,102191.00
2023-04-27T17:56:29.340Z,102198.00
2023-04-27T17:59:02.359Z,102193.00
2023-04-27T18:01:35.337Z,102206.00
2023-04-27T18:04:08.957Z,102195.00
2023-04-27T18:06:41.995Z,102198.00
2023-04-27T18:09:15.585Z,102195.00
2023-04-27T18:11:48.874Z,102192.00
2023-04-27T18:14:22.010Z,102191.00
2023-04-27T18:16:55.233Z,102191.00
2023-04-27T18:19:28.171Z,102190.00
2023-04-27T18:22:00.978Z,102193.00
2023-04-27T18:24:34.016Z,102187.00
2023-04-27T18:27:06.908Z,102190.00
2023-04-27T18:29:39.743Z,102186.00
2023-04-27T18:32:12.692Z,102191.00
2023-04-27T18:34:45.652Z,102182.00
2023-04-27T18:37:18.360Z,102181.00
2023-04-27T18:39:52.754Z,102182.00
2023-04-27T18:42:25.244Z,102186.00
2023-04-27T18:45:00.479Z,102198.00
2023-04-27T18:47:32.735Z,102186.00
2023-04-27T18:50:05.831Z,102182.00
2023-04-27T18:52:38.669Z,102179.00
2023-04-27T18:55:12.143Z,102185.00
2023-04-27T18:57:45.009Z,102178.00
2023-04-27T19:00:18.409Z,102179.00
2023-04-27T19:02:51.472Z,102183.00
2023-04-27T19:05:24.490Z,102180.00
2023-04-27T19:07:57.972Z,102171.00
2023-04-27T19:10:30.880Z,102186.00
2023-04-27T19:13:04.128Z,102181.00
2023-04-27T19:15:37.189Z,102186.00
2023-04-27T19:18:14.519Z,102189.00
2023-04-27T19:20:47.434Z,102197.00
2023-04-27T19:23:21.207Z,102196.00
2023-04-27T19:26:02.782Z,102189.00
2023-04-27T19:28:31.412Z,102192.00
2023-04-27T19:31:08.503Z,102199.00
2023-04-27T19:33:46.829Z,102201.00
2023-04-27T19:36:15.487Z,102201.00
2023-04-27T19:38:48.577Z,102203.00
2023-04-27T19:41:23.780Z,102210.00
2023-04-27T19:43:57.006Z,102200.00
2023-04-27T19:46:29.704Z,102212.00
2023-04-27T19:49:02.882Z,102216.00
2023-04-27T19:51:35.508Z,102211.00
2023-04-27T19:54:08.377Z,102213.00
2023-04-27T19:56:41.158Z,102222.00
2023-04-27T19:59:14.102Z,102228.00
2023-04-27T20:01:54.872Z,102227.00
2023-04-27T20:04:28.171Z,102221.00
2023-04-27T20:07:01.087Z,102226.00
2023-04-27T20:09:33.927Z,102236.00
2023-04-27T20:12:08.076Z,102236.00
2023-04-27T20:14:44.972Z,102237.00
2023-04-27T20:20:27.247Z,102241.00
2023-04-27T20:23:00.555Z,102247.00
2023-04-27T20:25:33.685Z,102244.00
2023-04-27T20:28:09.022Z,102247.00
2023-04-27T20:30:42.045Z,102248.00
2023-04-27T20:33:18.169Z,102260.00
2023-04-27T20:35:51.366Z,102258.00
2023-04-27T20:38:24.297Z,102267.00
2023-04-27T20:40:58.963Z,102264.00
2023-04-27T20:43:31.789Z,102265.00
2023-04-27T20:46:04.608Z,102258.00
2023-04-27T20:48:37.544Z,102265.00
2023-04-27T20:51:10.345Z,102268.00
2023-04-27T20:53:43.082Z,102269.00
2023-04-27T20:56:15.925Z,102261.00
2023-04-27T20:58:52.947Z,102262.00
2023-04-27T21:01:25.955Z,102266.00
2023-04-27T21:03:58.670Z,102270.00
2023-04-27T21:06:31.443Z,102272.00
2023-04-27T21:09:04.198Z,102273.00
2023-04-27T21:11:37.128Z,102270.00
2023-04-27T21:14:10.032Z,102272.00
2023-04-27T21:16:43.366Z,102274.00
2023-04-27T21:19:17.599Z,102265.00
2023-04-27T21:21:50.536Z,102272.00
2023-04-27T21:24:24.160Z,102269.00
2023-04-27T21:26:57.057Z,102271.00
2023-04-27T21:29:29.912Z,102274.00
2023-04-27T21:32:03.120Z,102271.00
2023-04-27T21:34:35.894Z,102265.00
2023-04-27T21:37:08.779Z,102263.00
2023-04-27T21:39:41.763Z,102259.00
2023-04-27T21:42:14.591Z,102260.00
2023-04-27T21:44:48.662Z,102256.00
2023-04-27T21:47:21.582Z,102252.00
2023-04-27T21:49:54.443Z,102263.00
2023-04-27T21:52:27.064Z,102254.00
2023-04-27T21:54:59.844Z,102261.00
2023-04-27T21:57:34.211Z,102251.00
2023-04-27T22:00:08.372Z,102251.00
2023-04-27T22:02:41.471Z,102255.00
2023-04-27T22:05:14.318Z,102254.00
2023-04-27T22:07:49.646Z,102257.00
2023-04-27T22:10:22.377Z,102265.00
2023-04-27T22:12:55.712Z,102247.00
2023-04-27T22:15:29.264Z,102246.00
2023-04-27T22:18:04.730Z,102242.00
2023-04-27T22:20:36.243Z,102246.00
2023-04-27T22:23:09.190Z,102256.00
2023-04-27T22:25:47.404Z,102253.00
2023-04-27T22:28:20.306Z,102253.00
2023-04-27T22:30:53.164Z,102246.00
2023-04-27T22:33:26.186Z,102259.00
2023-04-27T22:35:59.147Z,102252.00
2023-04-27T22:38:37.876Z,102263.00
2023-04-27T22:41:10.864Z,102260.00
2023-04-27T22:43:43.763Z,102245.00
2023-04-27T22:46:16.571Z,102245.00
2023-04-27T22:48:49.484Z,102241.00
2023-04-27T22:51:22.353Z,102248.00
2023-04-27T22:53:55.228Z,102245.00
2023-04-27T22:56:28.135Z,102236.00
2023-04-27T22:59:00.872Z,102237.00
2023-04-27T23:01:33.620Z,102241.00
2023-04-27T23:04:06.774Z,102238.00
2023-04-27T23:06:40.056Z,102230.00
2023-04-27T23:09:12.720Z,102234.00
2023-04-27T23:11:45.514Z,102221.00
2023-04-27T23:14:19.718Z,102214.00
2023-04-27T23:16:53.166Z,102213.00
2023-04-27T23:19:28.158Z,102214.00
2023-04-27T23:22:01.036Z,102213.00
2023-04-27T23:24:34.050Z,102209.00
2023-04-27T23:27:07.195Z,102210.00
2023-04-27T23:29:40.011Z,102206.00
2023-04-27T23:32:12.661Z,102202.00
2023-04-27T23:34:45.612Z,102207.00
2023-04-27T23:37:18.424Z,102194.00
2023-04-27T23:39:51.421Z,102204.00
2023-04-27T23:42:24.325Z,102194.00
2023-04-27T23:45:01.481Z,102205.00
2023-04-27T23:47:35.688Z,102193.00
2023-04-27T23:50:09.225Z,102198.00
2023-04-27T23:52:45.138Z,102194.00
2023-04-27T23:55:18.712Z,102187.00
2023-04-27T23:57:52.871Z,102185.00
